Time;durP1;ratioP1;P1;durP2;ratioP2;P2;SDS_P1;SDS_P2;PMS_P1;PMS_P2;Temp;Humidity;BMP_temperature;BMP_pressure;BME280_temperature;BME280_humidity;BME280_pressure;Samples;Min_cycle;Max_cycle;Signal;HPM_P1;HPM_P2
2022/06/29 00:00:51;;;;;;;2.88;1.80;;;;;;;;;;4326278;28;10000690;-76
2022/06/29 00:03:16;;;;;;;2.08;1.65;;;;;;;;;;5012433;28;20118;-76
2022/06/29 00:05:42;;;;;;;6.18;1.90;;;17.90;99.90;;;;;;5021011;28;20013;-76
2022/06/29 00:08:08;;;;;;;2.33;1.58;;;18.10;99.00;;;;;;5013421;28;20422;-76
2022/06/29 00:10:35;;;;;;;3.45;1.95;;;18.10;98.80;;;;;;5020419;28;20389;-76
2022/06/29 00:13:01;;;;;;;2.38;1.67;;;18.00;98.80;;;;;;5027610;28;20033;-76
2022/06/29 00:15:27;;;;;;;7.00;1.88;;;18.00;99.40;;;;;;5016985;28;20036;-76
2022/06/29 00:17:52;;;;;;;2.10;1.80;;;17.90;99.90;;;;;;5014935;28;20034;-76
2022/06/29 00:20:18;;;;;;;2.85;1.90;;;17.90;99.90;;;;;;5021208;28;20108;-76
2022/06/29 00:22:45;;;;;;;3.33;1.80;;;17.90;99.90;;;;;;5022952;28;20022;-76
2022/06/29 00:25:12;;;;;;;4.38;1.85;;;17.80;99.90;;;;;;5033505;28;20032;-76
2022/06/29 00:27:39;;;;;;;3.83;1.98;;;17.80;99.90;;;;;;5033556;28;20030;-76
2022/06/29 00:30:05;;;;;;;2.10;1.67;;;17.80;99.90;;;;;;5028015;28;20045;-76
2022/06/29 00:32:31;;;;;;;4.32;2.00;;;17.80;99.90;;;;;;5021762;28;20713;-76
2022/06/29 00:34:58;;;;;;;4.85;2.20;;;17.80;99.90;;;;;;5028785;28;20044;-76
2022/06/29 00:37:24;;;;;;;5.07;2.00;;;17.80;99.90;;;;;;5027774;28;20030;-76
2022/06/29 00:39:50;;;;;;;2.75;1.80;;;17.70;99.90;;;;;;5023096;28;20029;-75
2022/06/29 00:42:15;;;;;;;2.65;2.05;;;17.70;99.90;;;;;;5017865;28;20030;-76
2022/06/29 00:44:41;;;;;;;4.95;2.15;;;17.70;99.90;;;;;;5023948;28;20493;-76
2022/06/29 00:47:07;;;;;;;3.88;2.05;;;17.70;99.90;;;;;;5028786;28;20085;-76
2022/06/29 00:49:33;;;;;;;2.03;1.80;;;17.60;99.90;;;;;;5018549;28;21106;-76
2022/06/29 00:52:16;;;;;;;3.47;1.73;;;17.60;99.90;;;;;;5024307;28;20025;-76
2022/06/29 00:54:54;;;;;;;4.53;2.10;;;17.60;99.90;;;;;;5033928;28;20041;-76
2022/06/29 00:57:26;;;;;;;3.38;2.13;;;17.60;99.90;;;;;;5026525;28;20548;-77
2022/06/29 00:59:54;;;;;;;4.60;1.90;;;17.60;99.90;;;;;;5013083;28;20034;-76
2022/06/29 01:02:23;;;;;;;2.95;1.90;;;17.60;99.90;;;;;;5025567;28;20024;-76
2022/06/29 01:04:50;;;;;;;5.07;1.90;;;17.60;99.90;;;;;;5038219;28;20083;-76
2022/06/29 01:07:19;;;;;;;4.63;1.88;;;17.60;99.90;;;;;;5019633;28;20485;-76
2022/06/29 01:09:45;;;;;;;2.80;1.65;;;17.50;99.90;;;;;;5021551;28;20040;-76
2022/06/29 01:12:12;;;;;;;2.40;1.58;;;17.50;99.90;;;;;;5026099;28;20075;-76
2022/06/29 01:14:41;;;;;;;5.38;1.80;;;17.50;99.90;;;;;;5028842;28;20022;-76
2022/06/29 01:17:06;;;;;;;3.63;1.50;;;17.50;99.90;;;;;;5028523;28;20120;-76
2022/06/29 01:19:32;;;;;;;2.13;1.40;;;17.50;99.90;;;;;;5021100;28;20133;-76
2022/06/29 01:22:09;;;;;;;1.98;1.30;;;17.40;99.90;;;;;;5019343;28;20028;-76
2022/06/29 01:24:34;;;;;;;3.22;1.45;;;17.50;99.90;;;;;;5026210;28;20083;-76
2022/06/29 01:27:00;;;;;;;4.53;1.52;;;17.50;99.90;;;;;;5024222;28;20030;-76
2022/06/29 01:29:27;;;;;;;1.77;1.38;;;17.50;99.90;;;;;;5026070;28;20111;-76
2022/06/29 01:31:57;;;;;;;5.03;1.70;;;17.50;99.90;;;;;;5024421;28;20033;-76
2022/06/29 01:34:26;;;;;;;3.95;1.60;;;17.40;99.90;;;;;;5014362;28;20041;-76
2022/06/29 01:36:52;;;;;;;2.65;1.65;;;17.40;99.90;;;;;;5024862;28;20029;-76
2022/06/29 01:39:18;;;;;;;2.95;1.50;;;17.40;99.90;;;;;;5025922;28;20037;-76
2022/06/29 01:41:44;;;;;;;3.38;1.83;;;;;;;;;;5024320;28;20103;-76
2022/06/29 01:44:10;;;;;;;2.78;1.70;;;;;;;;;;5027302;28;20021;-76
2022/06/29 01:46:36;;;;;;;1.98;1.55;;;;;;;;;;5026228;28;20020;-76
2022/06/29 01:49:02;;;;;;;2.85;1.80;;;;;;;;;;5023325;28;20113;-76
2022/06/29 01:51:28;;;;;;;5.82;1.88;;;;;;;;;;5021921;28;22957;-76
2022/06/29 01:53:54;;;;;;;5.45;2.00;;;;;;;;;;5025850;28;20040;-76
2022/06/29 01:56:20;;;;;;;2.45;1.92;;;;;;;;;;5023979;28;20033;-76
2022/06/29 01:58:47;;;;;;;3.40;2.08;;;;;;;;;;5027509;28;20029;-76
2022/06/29 02:01:13;;;;;;;4.93;2.10;;;17.30;99.90;;;;;;5025503;28;20022;-77
2022/06/29 02:03:39;;;;;;;3.45;2.10;;;17.20;99.90;;;;;;5022085;28;20021;-76
2022/06/29 02:06:05;;;;;;;3.90;2.00;;;17.20;99.90;;;;;;5024764;28;20021;-76
2022/06/29 02:08:31;;;;;;;4.32;1.92;;;17.20;99.90;;;;;;5019577;28;20033;-77
2022/06/29 02:10:58;;;;;;;3.15;2.10;;;17.20;99.90;;;;;;5026075;28;20486;-76
2022/06/29 02:13:23;;;;;;;5.25;1.90;;;17.20;99.90;;;;;;5022073;28;20446;-77
2022/06/29 02:15:49;;;;;;;3.08;2.00;;;17.20;99.90;;;;;;5020477;28;20072;-76
2022/06/29 02:18:15;;;;;;;4.13;1.63;;;17.20;99.90;;;;;;5011918;28;20068;-77
2022/06/29 02:20:41;;;;;;;2.20;1.90;;;17.20;99.90;;;;;;5024336;28;20021;-76
2022/06/29 02:23:06;;;;;;;3.63;2.00;;;17.20;99.90;;;;;;5023155;28;20104;-77
2022/06/29 02:25:32;;;;;;;3.35;2.00;;;17.20;99.90;;;;;;5024431;28;20037;-76
2022/06/29 02:27:57;;;;;;;3.67;2.03;;;17.10;99.90;;;;;;5028950;28;20017;-76
2022/06/29 02:34:43;;;;;;;3.78;2.17;;;17.10;99.90;;;;;;5022701;28;20529;-76
2022/06/29 02:35:52;;;;;;;5.03;2.17;;;17.20;99.90;;;;;;5025252;28;20064;-76
2022/06/29 02:38:18;;;;;;;3.40;1.90;;;17.20;99.90;;;;;;5025676;28;20457;-76
2022/06/29 02:40:44;;;;;;;2.85;1.90;;;17.20;99.90;;;;;;5021146;28;20555;-76
2022/06/29 02:43:10;;;;;;;2.85;1.70;;;17.20;99.90;;;;;;5020198;28;20096;-76
2022/06/29 02:45:36;;;;;;;4.97;2.10;;;17.20;99.90;;;;;;5022940;28;20105;-76
2022/06/29 02:48:02;;;;;;;4.28;1.90;;;17.20;99.90;;;;;;5026652;28;20436;-76
2022/06/29 02:50:28;;;;;;;2.38;1.88;;;17.20;99.90;;;;;;5024489;28;20666;-76
2022/06/29 02:52:54;;;;;;;2.58;1.85;;;17.20;99.90;;;;;;5026231;28;20445;-76
2022/06/29 02:55:19;;;;;;;5.90;2.50;;;17.20;99.90;;;;;;5014672;28;20029;-76
2022/06/29 02:57:45;;;;;;;3.25;1.77;;;17.20;99.90;;;;;;5015798;28;20481;-76
2022/06/29 03:00:12;;;;;;;4.43;2.22;;;17.20;99.90;;;;;;5011988;28;20018;-76
2022/06/29 03:02:38;;;;;;;4.22;2.22;;;17.20;99.90;;;;;;5026387;28;20108;-76
2022/06/29 03:05:04;;;;;;;4.25;2.17;;;17.10;99.90;;;;;;5012720;28;20113;-76
2022/06/29 03:07:30;;;;;;;4.75;2.38;;;17.10;99.90;;;;;;5021997;28;20052;-76
2022/06/29 03:09:55;;;;;;;3.30;1.98;;;17.10;99.90;;;;;;5024913;28;20060;-76
2022/06/29 03:12:21;;;;;;;4.40;2.45;;;17.00;99.90;;;;;;5024057;28;20091;-76
2022/06/29 03:14:46;;;;;;;3.92;2.22;;;17.10;99.90;;;;;;5025602;28;20076;-76
2022/06/29 03:17:12;;;;;;;5.13;1.90;;;17.10;99.90;;;;;;5021452;28;20076;-76
2022/06/29 03:19:38;;;;;;;3.42;2.10;;;17.00;99.90;;;;;;5023592;28;20014;-76
2022/06/29 03:22:03;;;;;;;6.00;2.15;;;17.00;99.90;;;;;;5025105;28;20095;-76
2022/06/29 03:24:29;;;;;;;3.67;2.03;;;17.00;99.90;;;;;;5022532;28;20068;-76
2022/06/29 03:26:54;;;;;;;4.43;1.80;;;17.00;99.90;;;;;;5021217;28;20025;-76
2022/06/29 03:29:20;;;;;;;3.78;1.70;;;17.00;99.90;;;;;;5011276;28;20030;-76
2022/06/29 03:31:46;;;;;;;2.58;1.90;;;17.00;99.90;;;;;;5024793;28;20509;-76
2022/06/29 03:34:11;;;;;;;3.75;1.95;;;17.00;99.90;;;;;;5026394;28;20047;-76
2022/06/29 03:36:37;;;;;;;3.72;2.22;;;17.00;99.90;;;;;;5026003;28;20030;-77
2022/06/29 03:39:03;;;;;;;4.63;2.00;;;17.00;99.90;;;;;;5015622;28;20038;-76
2022/06/29 03:41:28;;;;;;;2.45;1.73;;;17.10;99.90;;;;;;5014688;28;20385;-76
2022/06/29 03:43:54;;;;;;;4.07;2.08;;;17.10;99.90;;;;;;5026539;28;20263;-76
2022/06/29 03:46:19;;;;;;;5.38;2.00;;;17.10;96.30;;;;;;5021392;28;20024;-76
2022/06/29 03:48:45;;;;;;;3.00;1.73;;;17.10;94.80;;;;;;5021978;28;20030;-76
2022/06/29 03:51:11;;;;;;;4.35;1.88;;;17.10;94.50;;;;;;5015558;28;20053;-77
2022/06/29 03:53:36;;;;;;;3.70;1.70;;;17.10;94.50;;;;;;5009938;28;20578;-77
2022/06/29 03:56:02;;;;;;;3.90;1.83;;;17.10;94.30;;;;;;5017701;28;20037;-77
2022/06/29 03:58:28;;;;;;;4.65;1.95;;;17.10;94.00;;;;;;5019877;28;20026;-76
2022/06/29 04:00:53;;;;;;;2.63;1.50;;;17.10;93.90;;;;;;5014168;28;20025;-76
2022/06/29 04:03:19;;;;;;;2.28;1.67;;;17.10;93.60;;;;;;5015848;28;20558;-76
2022/06/29 04:05:45;;;;;;;3.15;1.80;;;17.20;93.60;;;;;;5013210;28;20030;-77
2022/06/29 04:08:10;;;;;;;4.78;2.08;;;17.20;93.60;;;;;;5014582;28;20068;-76
2022/06/29 04:10:36;;;;;;;2.55;1.60;;;17.30;92.90;;;;;;5016124;28;20044;-77
2022/06/29 04:13:02;;;;;;;4.18;1.83;;;17.30;92.80;;;;;;5017366;28;20030;-77
2022/06/29 04:15:28;;;;;;;5.28;2.20;;;17.40;92.80;;;;;;5010861;28;20060;-77
2022/06/29 04:17:54;;;;;;;10.40;2.13;;;17.40;92.70;;;;;;5013284;28;20501;-77
2022/06/29 04:23:03;;;;;;;2.95;1.58;;;17.40;92.40;;;;;;5017427;28;20087;-77
2022/06/29 04:25:29;;;;;;;4.07;1.60;;;17.50;92.60;;;;;;5020673;28;20026;-77
2022/06/29 04:27:55;;;;;;;2.28;1.80;;;17.50;92.30;;;;;;5016707;28;20653;-77
2022/06/29 04:30:21;;;;;;;4.45;1.80;;;17.40;92.30;;;;;;5015122;28;20570;-77
2022/06/29 04:32:47;;;;;;;2.53;1.73;;;17.50;92.20;;;;;;5015049;28;20531;-77
2022/06/29 04:35:12;;;;;;;3.80;1.75;;;17.40;92.30;;;;;;5024433;28;20099;-77
2022/06/29 04:37:38;;;;;;;4.50;1.90;;;17.40;92.60;;;;;;5020648;28;20530;-77
2022/06/29 04:40:04;;;;;;;2.15;1.60;;;17.40;92.30;;;;;;5016002;28;20088;-77
2022/06/29 04:42:30;;;;;;;2.40;1.60;;;17.40;92.40;;;;;;5013933;28;20032;-77
2022/06/29 04:44:55;;;;;;;2.55;1.40;;;17.40;92.60;;;;;;5016733;28;20026;-78
2022/06/29 04:47:21;;;;;;;4.47;2.10;;;17.40;92.30;;;;;;5013373;28;20022;-77
2022/06/29 04:49:47;;;;;;;6.90;2.00;;;17.40;92.70;;;;;;5012909;28;20117;-77
2022/06/29 04:52:12;;;;;;;3.50;2.03;;;17.50;92.60;;;;;;5016151;28;20057;-78
2022/06/29 04:54:39;;;;;;;2.65;1.52;;;17.50;92.50;;;;;;5010529;28;20504;-77
2022/06/29 04:57:06;;;;;;;3.30;1.67;;;17.60;92.80;;;;;;5015327;28;20037;-78
2022/06/29 04:59:32;;;;;;;2.22;1.60;;;17.70;92.80;;;;;;5015811;28;20029;-77
2022/06/29 05:01:58;;;;;;;2.15;1.50;;;17.90;92.40;;;;;;5009307;28;20041;-76
2022/06/29 05:04:23;;;;;;;4.55;1.50;;;18.00;92.60;;;;;;5026383;28;20029;-76
2022/06/29 05:06:49;;;;;;;5.03;1.80;;;18.20;92.50;;;;;;5028687;28;20060;-77
2022/06/29 05:09:15;;;;;;;2.95;1.85;;;18.40;91.90;;;;;;5023336;28;20030;-76
2022/06/29 05:11:40;;;;;;;3.50;1.80;;;18.60;92.10;;;;;;5026326;28;20125;-76
2022/06/29 05:14:06;;;;;;;3.63;1.98;;;18.70;91.90;;;;;;5035130;28;20393;-76
2022/06/29 05:16:31;;;;;;;5.63;1.85;;;19.00;91.50;;;;;;5024527;28;20154;-76
2022/06/29 05:18:57;;;;;;;4.75;1.77;;;19.20;91.50;;;;;;5031161;28;20436;-76
2022/06/29 05:21:23;;;;;;;5.10;2.15;;;19.40;91.20;;;;;;5024465;28;20025;-76
2022/06/29 05:23:48;;;;;;;3.50;2.10;;;19.60;90.70;;;;;;5022259;28;20385;-76
2022/06/29 05:26:15;;;;;;;3.33;1.63;;;19.80;90.60;;;;;;5024652;28;20486;-77
2022/06/29 05:28:40;;;;;;;5.65;1.75;;;20.00;90.10;;;;;;5019775;28;20381;-76
2022/06/29 05:31:06;;;;;;;3.63;2.03;;;20.10;90.70;;;;;;5026204;28;20112;-76
2022/06/29 05:33:38;;;;;;;4.50;1.90;;;20.20;90.80;;;;;;5025699;28;20045;-76
2022/06/29 05:36:08;;;;;;;4.30;2.03;;;20.30;90.80;;;;;;5022452;28;20017;-76
2022/06/29 05:38:34;;;;;;;3.92;1.90;;;20.30;91.30;;;;;;5017066;28;20119;-76
2022/06/29 05:41:00;;;;;;;5.07;2.28;;;20.20;91.00;;;;;;5020493;28;20033;-76
2022/06/29 05:43:30;;;;;;;4.22;1.83;;;20.20;91.00;;;;;;5012587;28;20477;-76
2022/06/29 05:45:57;;;;;;;6.43;2.25;;;20.20;91.40;;;;;;5021978;28;20029;-73
2022/06/29 05:48:22;;;;;;;4.03;2.05;;;20.20;91.50;;;;;;5021074;28;20034;-74
2022/06/29 05:50:48;;;;;;;4.38;2.20;;;20.30;92.00;;;;;;5020971;28;20260;-73
2022/06/29 05:53:14;;;;;;;2.42;1.85;;;20.30;92.20;;;;;;5019499;28;20032;-73
2022/06/29 05:55:40;;;;;;;5.38;1.85;;;20.40;92.50;;;;;;5016293;28;20033;-73
2022/06/29 05:58:06;;;;;;;4.15;2.30;;;20.40;92.10;;;;;;5019941;28;20034;-73
2022/06/29 06:00:31;;;;;;;3.60;2.30;;;20.50;91.90;;;;;;5016791;28;20029;-73
2022/06/29 06:02:57;;;;;;;5.30;2.30;;;20.50;92.20;;;;;;5021347;28;20018;-74
2022/06/29 06:05:23;;;;;;;7.10;2.30;;;20.60;91.90;;;;;;5017884;28;20698;-73
2022/06/29 06:07:48;;;;;;;4.15;2.50;;;20.70;92.00;;;;;;5019554;28;20082;-73
2022/06/29 06:10:14;;;;;;;4.20;2.65;;;20.80;92.60;;;;;;5022650;28;20033;-73
2022/06/29 06:12:40;;;;;;;6.28;2.72;;;20.80;91.90;;;;;;5021942;28;20037;-73
2022/06/29 06:15:07;;;;;;;6.13;2.65;;;20.90;92.00;;;;;;5024579;28;20033;-73
2022/06/29 06:17:32;;;;;;;5.72;2.53;;;20.90;92.70;;;;;;5020884;28;20026;-73
2022/06/29 06:19:58;;;;;;;4.93;2.47;;;21.00;92.50;;;;;;5019013;28;20026;-74
2022/06/29 06:22:24;;;;;;;9.00;2.35;;;21.00;93.10;;;;;;5013084;28;20060;-73
2022/06/29 06:24:50;;;;;;;6.32;2.55;;;21.00;92.10;;;;;;5020522;28;20517;-73
2022/06/29 06:27:16;;;;;;;7.03;2.30;;;21.00;92.70;;;;;;5018870;28;20033;-74
2022/06/29 06:29:42;;;;;;;3.17;1.92;;;21.00;92.90;;;;;;5021652;28;20025;-74
2022/06/29 06:32:08;;;;;;;2.63;2.00;;;21.00;91.90;;;;;;5023111;28;20236;-74
2022/06/29 06:34:34;;;;;;;6.10;1.88;;;21.00;91.70;;;;;;5021296;28;20049;-74
2022/06/29 06:36:59;;;;;;;4.25;1.90;;;21.00;91.90;;;;;;5024234;28;20027;-74
2022/06/29 06:39:26;;;;;;;6.30;1.90;;;21.00;92.20;;;;;;5037158;28;20029;-73
2022/06/29 06:41:52;;;;;;;3.55;1.95;;;21.00;92.20;;;;;;5027325;28;20053;-74
2022/06/29 06:44:17;;;;;;;3.70;1.92;;;21.00;92.90;;;;;;5022842;28;20057;-73
2022/06/29 06:46:48;;;;;;;4.70;1.55;;;20.90;92.80;;;;;;5016956;28;20037;-74
2022/06/29 06:49:22;;;;;;;4.90;1.83;;;20.90;93.10;;;;;;5018102;28;20045;-74
2022/06/29 06:51:49;;;;;;;8.50;1.80;;;20.80;93.30;;;;;;5009678;28;20033;-74
2022/06/29 06:54:14;;;;;;;5.60;1.80;;;20.80;93.30;;;;;;5018335;28;20044;-74
2022/06/29 06:56:40;;;;;;;5.75;2.15;;;20.80;93.10;;;;;;5014848;28;20390;-74
2022/06/29 06:59:06;;;;;;;4.70;1.92;;;20.80;92.70;;;;;;5020833;28;20018;-73
2022/06/29 07:01:31;;;;;;;6.55;2.00;;;20.80;92.50;;;;;;5027714;28;20029;-74
2022/06/29 07:03:57;;;;;;;3.03;2.10;;;20.80;93.10;;;;;;5023235;28;20025;-73
2022/06/29 07:06:23;;;;;;;2.10;1.90;;;20.80;93.40;;;;;;5029944;28;20037;-73
2022/06/29 07:08:49;;;;;;;9.15;2.28;;;20.80;92.80;;;;;;5029159;28;20112;-74
2022/06/29 07:11:15;;;;;;;3.35;2.20;;;20.80;93.30;;;;;;5017508;28;20036;-73
2022/06/29 07:13:41;;;;;;;3.33;2.40;;;20.70;93.40;;;;;;5025585;28;20021;-72
2022/06/29 07:16:07;;;;;;;3.08;1.95;;;20.70;93.70;;;;;;5024069;28;20021;-72
2022/06/29 07:18:33;;;;;;;2.53;1.85;;;20.70;93.90;;;;;;5022605;28;20052;-73
2022/06/29 07:21:00;;;;;;;3.85;1.92;;;20.70;93.90;;;;;;5018272;28;20029;-73
2022/06/29 07:23:27;;;;;;;5.30;2.42;;;20.80;94.50;;;;;;5004453;28;20084;-72
2022/06/29 07:25:53;;;;;;;5.95;2.10;;;20.80;95.20;;;;;;5008767;28;20512;-73
2022/06/29 07:28:19;;;;;;;3.40;2.20;;;20.90;93.40;;;;;;5005467;28;20156;-73
2022/06/29 07:30:44;;;;;;;2.78;2.33;;;20.80;93.90;;;;;;5019043;28;20501;-73
2022/06/29 07:33:10;;;;;;;3.50;2.17;;;20.80;93.40;;;;;;5034590;28;20028;-73
2022/06/29 07:35:36;;;;;;;5.65;2.40;;;20.80;93.00;;;;;;5019674;28;20505;-73
2022/06/29 07:38:01;;;;;;;6.63;2.20;;;20.90;93.30;;;;;;5023333;28;20069;-73
2022/06/29 07:40:27;;;;;;;3.10;2.00;;;21.00;94.00;;;;;;5024332;28;20029;-73
2022/06/29 07:42:53;;;;;;;3.15;2.10;;;21.00;93.60;;;;;;5021792;28;20029;-73
2022/06/29 07:45:19;;;;;;;5.00;2.53;;;21.10;93.40;;;;;;5031144;28;20104;-73
2022/06/29 07:47:45;;;;;;;3.15;2.53;;;21.20;93.80;;;;;;5028588;28;20029;-73
2022/06/29 07:50:14;;;;;;;6.32;2.63;;;21.30;94.50;;;;;;5021426;28;20040;-73
2022/06/29 07:52:42;;;;;;;7.30;2.78;;;21.30;94.40;;;;;;5026619;28;20076;-75
2022/06/29 07:55:08;;;;;;;3.33;2.50;;;21.40;93.80;;;;;;5033792;28;20040;-75
2022/06/29 07:57:36;;;;;;;3.33;2.40;;;21.40;93.60;;;;;;5017694;28;20299;-75
2022/06/29 08:00:04;;;;;;;5.88;2.60;;;21.50;94.30;;;;;;5015140;28;20104;-76
2022/06/29 08:02:30;;;;;;;2.80;2.60;;;21.60;94.70;;;;;;5010462;28;20171;-75
2022/06/29 08:04:55;;;;;;;4.03;2.60;;;21.70;94.60;;;;;;5009459;28;20109;-75
2022/06/29 08:07:21;;;;;;;3.97;2.40;;;21.80;94.40;;;;;;5019942;28;20477;-75
2022/06/29 08:09:47;;;;;;;5.50;2.45;;;21.90;94.30;;;;;;5040445;28;20044;-75
2022/06/29 08:12:12;;;;;;;7.13;2.78;;;21.90;94.90;;;;;;5030104;28;20575;-75
2022/06/29 08:14:38;;;;;;;2.72;2.53;;;22.00;94.60;;;;;;5027033;28;20025;-75
2022/06/29 08:17:03;;;;;;;5.03;2.40;;;22.00;94.50;;;;;;5026386;28;20032;-75
2022/06/29 08:19:29;;;;;;;3.22;2.30;;;22.10;94.50;;;;;;5034609;28;20111;-75
2022/06/29 08:21:55;;;;;;;4.15;2.50;;;22.20;94.10;;;;;;5012922;28;20049;-75
2022/06/29 08:24:20;;;;;;;4.60;2.60;;;22.30;94.60;;;;;;5028934;28;20507;-75
2022/06/29 08:26:46;;;;;;;6.97;2.53;;;22.40;94.30;;;;;;5043556;28;20032;-74
2022/06/29 08:29:11;;;;;;;3.35;2.65;;;22.60;94.10;;;;;;5024452;28;20064;-75
2022/06/29 08:31:37;;;;;;;5.22;2.80;;;22.70;93.50;;;;;;5026695;28;20533;-74
2022/06/29 08:34:06;;;;;;;5.50;2.58;;;22.90;93.60;;;;;;5028502;28;20041;-75
2022/06/29 08:36:32;;;;;;;3.20;2.90;;;22.90;93.00;;;;;;5027894;28;20114;-75
2022/06/29 08:38:57;;;;;;;4.90;2.63;;;23.10;93.40;;;;;;5028118;28;20504;-75
2022/06/29 08:41:25;;;;;;;4.18;2.67;;;23.10;92.80;;;;;;5030119;28;20108;-75
2022/06/29 08:43:51;;;;;;;3.13;2.75;;;23.30;93.70;;;;;;5030774;28;20037;-75
2022/06/29 08:46:17;;;;;;;3.45;2.60;;;23.40;92.80;;;;;;5022404;28;20018;-75
2022/06/29 08:48:42;;;;;;;4.35;2.80;;;23.60;93.10;;;;;;5028930;28;20028;-75
2022/06/29 08:51:11;;;;;;;5.45;2.40;;;23.80;92.90;;;;;;5029169;28;20493;-74
2022/06/29 08:53:40;;;;;;;5.75;2.78;;;23.90;92.40;;;;;;5030738;28;20503;-75
2022/06/29 08:56:07;;;;;;;4.18;3.10;;;24.10;91.70;;;;;;5025511;28;20656;-77
2022/06/29 08:58:35;;;;;;;3.78;2.88;;;24.40;91.60;;;;;;5021341;28;20052;-77
2022/06/29 09:01:00;;;;;;;3.03;2.83;;;24.50;91.50;;;;;;5014686;28;20121;-77
2022/06/29 09:03:26;;;;;;;4.40;3.00;;;24.60;92.10;;;;;;5023093;28;20036;-78
2022/06/29 09:05:56;;;;;;;3.75;2.88;;;24.70;91.70;;;;;;5028014;28;20174;-77
2022/06/29 09:08:22;;;;;;;4.15;2.97;;;24.80;92.00;;;;;;5016061;28;20072;-77
2022/06/29 09:10:49;;;;;;;3.47;2.80;;;24.80;91.80;;;;;;5017381;28;20033;-77
2022/06/29 09:13:19;;;;;;;6.57;3.47;;;25.00;91.90;;;;;;5026991;28;20029;-78
2022/06/29 09:15:45;;;;;;;4.25;3.45;;;25.10;91.40;;;;;;5022924;28;20627;-76
2022/06/29 09:18:23;;;;;;;3.65;3.35;;;25.40;91.50;;;;;;5020554;28;20033;-79
2022/06/29 09:20:55;;;;;;;3.72;3.38;;;25.50;90.20;;;;;;5015503;28;20108;-78
2022/06/29 09:23:22;;;;;;;4.05;3.65;;;25.50;90.50;;;;;;5016569;28;20055;-78
2022/06/29 09:25:47;;;;;;;3.83;3.53;;;25.60;91.10;;;;;;5024494;28;20044;-77
2022/06/29 09:28:24;;;;;;;3.95;3.45;;;25.70;89.60;;;;;;5027727;28;20029;-78
2022/06/29 09:30:54;;;;;;;3.83;3.53;;;25.50;89.70;;;;;;5007448;28;20397;-78
2022/06/29 09:33:21;;;;;;;6.25;3.83;;;25.50;90.90;;;;;;5024214;28;20405;-77
2022/06/29 09:36:10;;;;;;;5.38;3.58;;;25.50;90.70;;;;;;5025851;28;20029;-77
2022/06/29 09:38:37;;;;;;;4.57;3.97;;;25.70;91.20;;;;;;5018395;28;20029;-77
2022/06/29 09:41:09;;;;;;;5.00;4.00;;;25.90;89.10;;;;;;5017114;28;20040;-78
2022/06/29 09:43:40;;;;;;;4.18;3.75;;;25.90;89.00;;;;;;5019784;28;20323;-77
2022/06/29 09:46:08;;;;;;;5.20;3.90;;;26.00;89.40;;;;;;5030606;28;20705;-77
2022/06/29 09:48:35;;;;;;;4.25;3.70;;;26.30;86.90;;;;;;5018163;28;20413;-77
2022/06/29 09:51:30;;;;;;;5.95;4.07;;;26.30;86.60;;;;;;5017339;28;20034;-79
2022/06/29 09:53:52;;;;;;;4.18;3.33;;;26.40;87.30;;;;;;5019223;28;20041;-78
2022/06/29 09:56:20;;;;;;;4.05;3.75;;;26.50;88.60;;;;;;5023480;28;20065;-79
2022/06/29 09:58:47;;;;;;;4.88;3.92;;;26.50;86.40;;;;;;5023204;28;20203;-80
2022/06/29 10:04:00;;;;;;;3.95;3.55;;;26.20;87.00;;;;;;5021058;28;20117;-80
2022/06/29 10:06:26;;;;;;;4.10;3.72;;;26.10;90.50;;;;;;5029083;28;20365;-79
2022/06/29 10:08:53;;;;;;;4.78;4.22;;;26.00;90.60;;;;;;5015794;28;20025;-78
2022/06/29 10:14:56;;;;;;;4.20;3.80;;;26.20;91.10;;;;;;5023611;28;20057;-78
2022/06/29 10:17:37;;;;;;;4.28;3.88;;;26.50;92.00;;;;;;5024947;28;20557;-81
2022/06/29 10:20:09;;;;;;;5.70;4.07;;;26.60;91.40;;;;;;5014825;28;20517;-82
2022/06/29 10:22:35;;;;;;;4.47;4.07;;;26.50;91.00;;;;;;5021551;28;20022;-80
2022/06/29 10:25:02;;;;;;;5.82;4.60;;;26.50;90.50;;;;;;5018140;28;20037;-80
2022/06/29 10:27:28;;;;;;;4.22;3.92;;;26.70;89.40;;;;;;5022018;28;20033;-78
2022/06/29 10:30:20;;;;;;;4.40;4.10;;;26.60;90.60;;;;;;5021215;28;20030;-80
2022/06/29 10:32:47;;;;;;;6.32;4.43;;;26.60;90.60;;;;;;5019139;28;20104;-80
2022/06/29 10:35:13;;;;;;;5.00;4.43;;;26.60;89.10;;;;;;5025149;28;20060;-81
2022/06/29 10:37:54;;;;;;;5.47;4.72;;;26.40;88.60;;;;;;5019083;28;20084;-79
2022/06/29 10:40:22;;;;;;;4.88;4.30;;;26.40;89.70;;;;;;5026455;28;20125;-79
2022/06/29 10:45:34;;;;;;;5.05;4.15;;;26.40;88.80;;;;;;5023945;28;20164;-80
2022/06/29 10:48:03;;;;;;;5.85;4.40;;;26.40;85.30;;;;;;5027313;28;20405;-80
2022/06/29 10:50:29;;;;;;;5.45;4.28;;;26.40;84.90;;;;;;5023052;28;20390;-80
2022/06/29 10:52:57;;;;;;;5.50;4.03;;;26.40;84.60;;;;;;5023659;28;20124;-80
2022/06/29 10:55:27;;;;;;;4.30;3.90;;;26.40;84.00;;;;;;5023152;28;20040;-79
2022/06/29 10:57:54;;;;;;;4.15;3.78;;;26.50;82.50;;;;;;5023084;28;20030;-79
2022/06/29 11:00:25;;;;;;;5.15;3.63;;;26.70;80.70;;;;;;5023850;28;20033;-79
2022/06/29 11:02:51;;;;;;;3.50;3.20;;;27.00;80.90;;;;;;5019563;28;20067;-78
2022/06/29 11:05:17;;;;;;;3.95;3.35;;;27.20;77.30;;;;;;5014861;28;20017;-79
2022/06/29 11:13:04;;;;;;;4.20;3.80;;;27.80;77.20;;;;;;5022818;28;20030;-78
2022/06/29 11:15:41;;;;;;;3.70;3.40;;;28.00;79.00;;;;;;5020311;28;20025;-78
2022/06/29 11:18:11;;;;;;;3.50;3.25;;;28.10;78.40;;;;;;5022847;28;20033;-78
2022/06/29 11:20:38;;;;;;;3.47;3.15;;;28.10;74.70;;;;;;5014880;28;20071;-78
2022/06/29 11:23:16;;;;;;;5.30;3.10;;;28.10;74.70;;;;;;5013048;28;20081;-77
2022/06/29 11:25:45;;;;;;;3.40;3.10;;;28.20;75.30;;;;;;5017018;28;20321;-78
2022/06/29 11:28:12;;;;;;;6.75;3.45;;;28.10;74.30;;;;;;5013659;28;20139;-77
2022/06/29 11:30:38;;;;;;;3.25;3.05;;;27.80;81.50;;;;;;5012718;28;20029;-78
2022/06/29 11:33:10;;;;;;;4.05;3.10;;;27.90;84.20;;;;;;5014021;28;20041;-79
2022/06/29 11:35:37;;;;;;;3.70;3.10;;;28.20;84.30;;;;;;5017992;28;20033;-80
2022/06/29 11:38:05;;;;;;;3.35;3.10;;;28.30;81.70;;;;;;5019627;28;20111;-79
2022/06/29 11:40:40;;;;;;;3.65;3.35;;;28.30;81.70;;;;;;5022826;28;20032;-81
2022/06/29 11:43:14;;;;;;;3.90;3.50;;;28.30;80.60;;;;;;5023515;28;20073;-82
2022/06/29 11:45:44;;;;;;;4.22;2.90;;;28.30;80.60;;;;;;5018224;28;20034;-79
2022/06/29 11:48:12;;;;;;;2.97;2.50;;;28.00;75.80;;;;;;5028430;28;20398;-82
2022/06/29 11:50:51;;;;;;;5.70;2.75;;;27.90;72.70;;;;;;5024379;28;20325;-85
2022/06/29 11:53:39;;;;;;;4.78;2.40;;;27.90;70.80;;;;;;5021270;28;20025;-81
2022/06/29 11:56:09;;;;;;;2.65;2.42;;;27.60;69.30;;;;;;5026466;28;20033;-80
2022/06/29 11:58:36;;;;;;;3.03;2.72;;;27.50;69.50;;;;;;5015795;28;20369;-80
2022/06/29 12:01:07;;;;;;;2.75;2.55;;;27.50;70.80;;;;;;5021810;28;20025;-79
2022/06/29 12:03:32;;;;;;;4.30;2.60;;;27.30;71.60;;;;;;5017322;28;20072;-80
2022/06/29 12:05:59;;;;;;;3.65;2.70;;;27.20;71.70;;;;;;5021022;28;20061;-79
2022/06/29 12:08:27;;;;;;;3.47;2.90;;;27.10;71.50;;;;;;5022891;28;20037;-78
2022/06/29 12:10:53;;;;;;;3.72;2.60;;;27.30;73.00;;;;;;5031092;28;20032;-79
2022/06/29 12:13:19;;;;;;;6.30;2.50;;;27.40;75.70;;;;;;5024798;28;20026;-80
2022/06/29 12:15:44;;;;;;;2.95;2.22;;;27.40;72.50;;;;;;5024807;28;20095;-74
2022/06/29 12:18:10;;;;;;;3.88;2.45;;;27.50;72.70;;;;;;5023932;28;20013;-78
2022/06/29 12:20:35;;;;;;;5.80;2.30;;;27.80;75.70;;;;;;5023376;28;20018;-80
2022/06/29 12:23:01;;;;;;;2.58;2.38;;;27.70;73.60;;;;;;5018341;28;20120;-78
2022/06/29 12:25:26;;;;;;;3.58;2.65;;;27.70;74.60;;;;;;5024573;28;20083;-78
2022/06/29 12:27:52;;;;;;;2.65;2.20;;;27.70;77.50;;;;;;5012525;28;20040;-78
2022/06/29 12:30:17;;;;;;;2.88;2.20;;;27.80;75.00;;;;;;5021356;28;20068;-78
2022/06/29 12:32:43;;;;;;;2.78;2.20;;;28.20;75.60;;;;;;5027241;28;20417;-78
2022/06/29 12:35:09;;;;;;;3.90;2.00;;;28.30;72.70;;;;;;5025996;28;20048;-78
2022/06/29 12:37:34;;;;;;;3.50;2.20;;;28.40;72.30;;;;;;5021462;28;20300;-80
2022/06/29 12:40:00;;;;;;;3.35;1.90;;;28.50;72.70;;;;;;5024195;28;20116;-78
2022/06/29 12:42:25;;;;;;;1.95;1.83;;;28.40;70.30;;;;;;5022869;28;20026;-78
2022/06/29 12:44:51;;;;;;;2.50;2.30;;;28.50;71.20;;;;;;5027306;28;20074;-78
2022/06/29 12:47:17;;;;;;;3.13;2.10;;;28.60;70.30;;;;;;5026952;28;20448;-79
2022/06/29 12:49:42;;;;;;;2.22;2.03;;;28.50;71.50;;;;;;5012745;28;20065;-78
2022/06/29 12:52:08;;;;;;;2.42;2.10;;;28.60;70.60;;;;;;5020084;28;20037;-78
2022/06/29 12:54:34;;;;;;;6.95;2.10;;;28.80;70.10;;;;;;5024220;28;20025;-78
2022/06/29 12:57:00;;;;;;;2.75;2.08;;;28.90;68.60;;;;;;5024853;28;20116;-77
2022/06/29 12:59:26;;;;;;;2.75;1.95;;;29.00;68.30;;;;;;5041384;28;20116;-77
2022/06/29 13:01:51;;;;;;;3.58;1.98;;;29.30;68.90;;;;;;5021734;28;20474;-78
2022/06/29 13:04:19;;;;;;;2.03;1.90;;;29.60;67.10;;;;;;5025107;28;20060;-78
2022/06/29 13:06:45;;;;;;;4.07;1.88;;;29.40;67.50;;;;;;5020567;28;20231;-79
2022/06/29 13:09:11;;;;;;;2.33;2.00;;;29.20;66.20;;;;;;5021513;28;20040;-78